GGFPV NZQN-NZCH
Flight info
| Callsign | GGFPV |
|---|---|
| Flight time | N/A |
| Altitude | 8000 |
| Route | QN Q787 TIMJO Y153 DOPKI |
| Aircraft | BE58/L-SDFGRY/C |
Departure
| Time | 2026-04-28 21:30 |
|---|---|
| Airport | Queenstown Airport (NZQN) |
Arrival
| Time | N/A |
|---|---|
| Airport | Christchurch International Airport (NZCH) |
| Time | Latitude | Longitude | Altitude | Speed | Heading |
|---|---|---|---|---|---|
| 2026-04-28 21:09 | -45.02086 | 168.73821 | 1159 ft | 0 kts | 78° |
| 2026-04-28 21:23 | -45.02085 | 168.73828 | 1159 ft | 3 kts | 79° |
| 2026-04-28 21:23 | -45.02070 | 168.73885 | 1159 ft | 7 kts | 52° |
| 2026-04-28 21:23 | -45.02052 | 168.73921 | 1159 ft | 6 kts | 60° |
| 2026-04-28 21:23 | -45.02052 | 168.73996 | 1159 ft | 10 kts | 122° |
| 2026-04-28 21:24 | -45.02095 | 168.74082 | 1158 ft | 12 kts | 117° |
| 2026-04-28 21:24 | -45.02137 | 168.74201 | 1158 ft | 14 kts | 117° |
| 2026-04-28 21:24 | -45.02112 | 168.74360 | 1158 ft | 13 kts | 358° |
| 2026-04-28 21:24 | -45.02047 | 168.74332 | 1158 ft | 15 kts | 337° |
| 2026-04-28 21:25 | -45.01969 | 168.74334 | 1159 ft | 12 kts | 78° |
| 2026-04-28 21:25 | -45.01949 | 168.74448 | 1159 ft | 12 kts | 77° |
| 2026-04-28 21:25 | -45.01931 | 168.74566 | 1159 ft | 13 kts | 80° |
| 2026-04-28 21:25 | -45.01913 | 168.74689 | 1159 ft | 13 kts | 78° |
| 2026-04-28 21:26 | -45.01891 | 168.74819 | 1159 ft | 14 kts | 75° |
| 2026-04-28 21:26 | -45.01868 | 168.74960 | 1159 ft | 15 kts | 77° |
| 2026-04-28 21:26 | -45.01845 | 168.75114 | 1159 ft | 17 kts | 76° |
| 2026-04-28 21:26 | -45.01819 | 168.75276 | 1159 ft | 17 kts | 76° |
| 2026-04-28 21:27 | -45.01796 | 168.75440 | 1159 ft | 17 kts | 77° |
| 2026-04-28 21:27 | -45.01768 | 168.75603 | 1159 ft | 17 kts | 77° |
| 2026-04-28 21:27 | -45.01723 | 168.75711 | 1160 ft | 4 kts | 349° |
| 2026-04-28 21:27 | -45.01722 | 168.75711 | 1160 ft | 0 kts | 348° |
| 2026-04-28 21:28 | -45.01719 | 168.75710 | 1161 ft | 3 kts | 348° |
| 2026-04-28 21:29 | -45.01674 | 168.75682 | 1163 ft | 9 kts | 287° |
| 2026-04-28 21:29 | -45.01681 | 168.75615 | 1163 ft | 0 kts | 256° |
| 2026-04-28 21:29 | -45.01684 | 168.75599 | 1163 ft | 16 kts | 256° |
| 2026-04-28 21:30 | -45.01777 | 168.75000 | 1162 ft | 102 kts | 257° |
| 2026-04-28 21:30 | -45.01917 | 168.73872 | 1443 ft | 118 kts | 261° |
| 2026-04-28 21:30 | -45.02080 | 168.72744 | 1958 ft | 118 kts | 253° |
| 2026-04-28 21:30 | -45.02345 | 168.71702 | 2523 ft | 108 kts | 251° |
| 2026-04-28 21:31 | -45.02632 | 168.70605 | 2763 ft | 129 kts | 246° |
| 2026-04-28 21:31 | -45.03034 | 168.69415 | 2985 ft | 139 kts | 245° |
| 2026-04-28 21:31 | -45.03458 | 168.68161 | 3234 ft | 143 kts | 245° |
| 2026-04-28 21:31 | -45.03909 | 168.66860 | 3510 ft | 154 kts | 246° |
| 2026-04-28 21:32 | -45.04408 | 168.65468 | 3797 ft | 162 kts | 246° |
| 2026-04-28 21:32 | -45.04930 | 168.64029 | 4065 ft | 167 kts | 246° |
| 2026-04-28 21:32 | -45.05515 | 168.62590 | 4323 ft | 170 kts | 243° |
| 2026-04-28 21:32 | -45.06137 | 168.61167 | 4585 ft | 171 kts | 243° |
| 2026-04-28 21:33 | -45.06766 | 168.59744 | 4849 ft | 170 kts | 243° |
| 2026-04-28 21:33 | -45.07388 | 168.58335 | 5101 ft | 167 kts | 244° |
| 2026-04-28 21:33 | -45.07998 | 168.56949 | 5348 ft | 165 kts | 244° |
| 2026-04-28 21:33 | -45.08601 | 168.55577 | 5601 ft | 163 kts | 246° |
| 2026-04-28 21:34 | -45.09198 | 168.54222 | 5850 ft | 161 kts | 246° |
| 2026-04-28 21:34 | -45.09782 | 168.52892 | 6106 ft | 158 kts | 248° |
| 2026-04-28 21:34 | -45.10357 | 168.51584 | 6362 ft | 156 kts | 248° |
| 2026-04-28 21:34 | -45.10923 | 168.50294 | 6615 ft | 153 kts | 249° |
| 2026-04-28 21:35 | -45.11479 | 168.49028 | 6852 ft | 151 kts | 249° |
| 2026-04-28 21:35 | -45.12037 | 168.47748 | 6983 ft | 155 kts | 249° |
| 2026-04-28 21:35 | -45.12610 | 168.46437 | 7114 ft | 158 kts | 250° |
| 2026-04-28 21:35 | -45.13194 | 168.45103 | 7241 ft | 160 kts | 249° |
| 2026-04-28 21:36 | -45.13784 | 168.43756 | 7373 ft | 163 kts | 249° |
| 2026-04-28 21:36 | -45.14385 | 168.42383 | 7501 ft | 164 kts | 250° |
| 2026-04-28 21:36 | -45.14819 | 168.40978 | 7611 ft | 144 kts | 275° |
| 2026-04-28 21:36 | -45.14451 | 168.39834 | 7727 ft | 127 kts | 318° |
| 2026-04-28 21:37 | -45.13666 | 168.39213 | 7876 ft | 137 kts | 334° |
| 2026-04-28 21:37 | -45.12659 | 168.39138 | 8003 ft | 160 kts | 1° |
| 2026-04-28 21:37 | -45.11635 | 168.40079 | 7995 ft | 195 kts | 38° |
| 2026-04-28 21:37 | -45.10890 | 168.41721 | 8004 ft | 200 kts | 48° |
| 2026-04-28 21:38 | -45.10172 | 168.43408 | 8012 ft | 199 kts | 46° |
| 2026-04-28 21:38 | -45.09400 | 168.45030 | 8014 ft | 198 kts | 44° |
| 2026-04-28 21:38 | -45.08608 | 168.46631 | 8011 ft | 198 kts | 44° |
| 2026-04-28 21:38 | -45.07820 | 168.48231 | 8003 ft | 198 kts | 44° |
| 2026-04-28 21:39 | -45.07040 | 168.49825 | 8008 ft | 195 kts | 43° |
| 2026-04-28 21:39 | -45.06272 | 168.51393 | 7976 ft | 190 kts | 44° |
| 2026-04-28 21:39 | -45.05573 | 168.52841 | 8009 ft | 173 kts | 42° |
| 2026-04-28 21:39 | -45.04861 | 168.54262 | 8003 ft | 182 kts | 42° |
| 2026-04-28 21:40 | -45.04119 | 168.55755 | 8016 ft | 190 kts | 44° |
| 2026-04-28 21:40 | -45.03344 | 168.57335 | 7998 ft | 198 kts | 45° |
| 2026-04-28 21:40 | -45.02563 | 168.58935 | 8004 ft | 199 kts | 45° |
| 2026-04-28 21:40 | -45.01775 | 168.60547 | 8004 ft | 198 kts | 45° |
| 2026-04-28 21:41 | -45.00988 | 168.62140 | 7998 ft | 196 kts | 45° |
| 2026-04-28 21:41 | -45.00244 | 168.63648 | 7994 ft | 185 kts | 45° |
| 2026-04-28 21:41 | -44.99510 | 168.65140 | 7993 ft | 184 kts | 44° |
| 2026-04-28 21:41 | -44.98777 | 168.66624 | 7995 ft | 185 kts | 43° |
| 2026-04-28 21:42 | -44.98028 | 168.68138 | 7995 ft | 190 kts | 44° |
| 2026-04-28 21:42 | -44.97267 | 168.69678 | 7996 ft | 192 kts | 44° |
| 2026-04-28 21:42 | -44.96500 | 168.71234 | 8005 ft | 194 kts | 45° |
| 2026-04-28 21:42 | -44.95722 | 168.72809 | 8008 ft | 197 kts | 45° |
| 2026-04-28 21:43 | -44.94938 | 168.74398 | 8007 ft | 197 kts | 45° |
| 2026-04-28 21:43 | -44.94151 | 168.75987 | 8008 ft | 197 kts | 45° |
| 2026-04-28 21:43 | -44.93376 | 168.77557 | 8007 ft | 194 kts | 45° |
| 2026-04-28 21:43 | -44.92605 | 168.79113 | 8004 ft | 194 kts | 45° |
| 2026-04-28 21:44 | -44.91831 | 168.80668 | 8009 ft | 194 kts | 45° |
| 2026-04-28 21:44 | -44.91073 | 168.82207 | 7994 ft | 187 kts | 44° |
| 2026-04-28 21:44 | -44.90341 | 168.83681 | 8003 ft | 183 kts | 45° |
| 2026-04-28 21:44 | -44.89599 | 168.85170 | 8006 ft | 189 kts | 45° |
| 2026-04-28 21:45 | -44.88837 | 168.86701 | 8016 ft | 193 kts | 46° |
| 2026-04-28 21:45 | -44.88060 | 168.88270 | 8009 ft | 197 kts | 46° |
| 2026-04-28 21:45 | -44.87276 | 168.89842 | 8008 ft | 193 kts | 45° |
| 2026-04-28 21:45 | -44.86504 | 168.91399 | 8017 ft | 195 kts | 46° |
| 2026-04-28 21:46 | -44.85720 | 168.92978 | 8018 ft | 198 kts | 47° |
| 2026-04-28 21:46 | -44.84931 | 168.94572 | 8008 ft | 198 kts | 47° |
| 2026-04-28 21:46 | -44.84149 | 168.96137 | 8019 ft | 195 kts | 46° |
| 2026-04-28 21:46 | -44.83355 | 168.97711 | 8021 ft | 199 kts | 46° |
| 2026-04-28 21:47 | -44.82552 | 168.99320 | 8023 ft | 202 kts | 47° |
| 2026-04-28 21:47 | -44.81748 | 169.00941 | 8021 ft | 201 kts | 47° |
| 2026-04-28 21:47 | -44.80951 | 169.02542 | 8025 ft | 199 kts | 47° |
| 2026-04-28 21:47 | -44.80168 | 169.04109 | 8023 ft | 198 kts | 46° |
| 2026-04-28 21:48 | -44.79373 | 169.05693 | 8019 ft | 198 kts | 46° |
| 2026-04-28 21:48 | -44.78582 | 169.07279 | 8022 ft | 198 kts | 47° |
| 2026-04-28 21:48 | -44.77788 | 169.08868 | 8023 ft | 198 kts | 46° |
| 2026-04-28 21:48 | -44.76990 | 169.10456 | 8030 ft | 200 kts | 46° |
| 2026-04-28 21:49 | -44.76188 | 169.12058 | 8034 ft | 201 kts | 47° |
| 2026-04-28 21:49 | -44.75377 | 169.13675 | 8040 ft | 203 kts | 47° |
| 2026-04-28 21:49 | -44.74560 | 169.15306 | 8035 ft | 204 kts | 47° |
| 2026-04-28 21:49 | -44.73742 | 169.16937 | 8035 ft | 204 kts | 46° |
| 2026-04-28 21:50 | -44.72929 | 169.18560 | 8036 ft | 203 kts | 46° |
| 2026-04-28 21:50 | -44.72114 | 169.20180 | 8033 ft | 202 kts | 46° |
| 2026-04-28 21:50 | -44.71304 | 169.21789 | 8032 ft | 201 kts | 46° |
| 2026-04-28 21:50 | -44.70497 | 169.23396 | 8033 ft | 201 kts | 46° |
| 2026-04-28 21:51 | -44.69691 | 169.24995 | 8029 ft | 200 kts | 46° |
| 2026-04-28 21:51 | -44.68888 | 169.26592 | 8028 ft | 200 kts | 46° |
| 2026-04-28 21:51 | -44.68085 | 169.28185 | 8028 ft | 199 kts | 46° |
| 2026-04-28 21:51 | -44.67283 | 169.29776 | 8030 ft | 200 kts | 46° |
| 2026-04-28 21:52 | -44.66480 | 169.31367 | 8033 ft | 200 kts | 46° |
| 2026-04-28 21:52 | -44.65673 | 169.32968 | 8033 ft | 201 kts | 46° |
| 2026-04-28 21:52 | -44.64860 | 169.34576 | 8029 ft | 202 kts | 46° |
| 2026-04-28 21:52 | -44.64054 | 169.36172 | 8035 ft | 200 kts | 46° |
| 2026-04-28 21:53 | -44.63242 | 169.37777 | 8035 ft | 203 kts | 45° |
| 2026-04-28 21:53 | -44.62425 | 169.39393 | 8029 ft | 202 kts | 45° |
| 2026-04-28 21:53 | -44.61627 | 169.40975 | 8031 ft | 195 kts | 46° |
| 2026-04-28 21:53 | -44.60847 | 169.42515 | 8036 ft | 193 kts | 45° |
| 2026-04-28 21:54 | -44.60055 | 169.44068 | 8050 ft | 199 kts | 45° |
| 2026-04-28 21:54 | -44.59247 | 169.45663 | 8036 ft | 201 kts | 45° |
| 2026-04-28 21:54 | -44.58447 | 169.47251 | 8038 ft | 198 kts | 45° |
| 2026-04-28 21:54 | -44.57651 | 169.48819 | 8039 ft | 197 kts | 45° |
| 2026-04-28 21:55 | -44.56857 | 169.50381 | 8045 ft | 196 kts | 44° |
| 2026-04-28 21:55 | -44.56053 | 169.51953 | 8058 ft | 200 kts | 44° |
| 2026-04-28 21:55 | -44.55243 | 169.53555 | 8052 ft | 202 kts | 45° |
| 2026-04-28 21:55 | -44.54420 | 169.55168 | 8040 ft | 204 kts | 45° |
| 2026-04-28 21:56 | -44.53603 | 169.56777 | 8042 ft | 202 kts | 45° |
| 2026-04-28 21:56 | -44.52800 | 169.58362 | 8052 ft | 196 kts | 44° |
| 2026-04-28 21:56 | -44.52017 | 169.59896 | 8054 ft | 197 kts | 44° |
| 2026-04-28 21:56 | -44.51209 | 169.61476 | 8055 ft | 201 kts | 45° |
| 2026-04-28 21:57 | -44.50398 | 169.63068 | 8052 ft | 200 kts | 45° |
| 2026-04-28 21:57 | -44.49585 | 169.64670 | 8052 ft | 197 kts | 44° |
| 2026-04-28 21:57 | -44.48803 | 169.66200 | 8052 ft | 196 kts | 44° |
| 2026-04-28 21:57 | -44.48008 | 169.67749 | 8048 ft | 196 kts | 44° |
| 2026-04-28 21:58 | -44.47201 | 169.69327 | 8063 ft | 198 kts | 44° |
| 2026-04-28 21:58 | -44.46386 | 169.70919 | 8055 ft | 203 kts | 45° |
| 2026-04-28 21:58 | -44.45652 | 169.72601 | 8063 ft | 208 kts | 53° |
| 2026-04-28 21:58 | -44.44970 | 169.74410 | 8068 ft | 212 kts | 53° |
| 2026-04-28 21:59 | -44.44268 | 169.76235 | 8065 ft | 214 kts | 53° |
| 2026-04-28 21:59 | -44.43558 | 169.78071 | 8072 ft | 215 kts | 53° |
| 2026-04-28 21:59 | -44.42845 | 169.79924 | 8043 ft | 214 kts | 54° |
| 2026-04-28 22:00 | -44.41498 | 169.83406 | 8062 ft | 202 kts | 52° |
| 2026-04-28 22:00 | -44.40828 | 169.85135 | 8057 ft | 203 kts | 52° |
| 2026-04-28 22:00 | -44.40154 | 169.86875 | 8060 ft | 204 kts | 52° |
| 2026-04-28 22:00 | -44.39476 | 169.88629 | 8060 ft | 205 kts | 52° |
| 2026-04-28 22:01 | -44.38795 | 169.90388 | 8064 ft | 206 kts | 52° |
| 2026-04-28 22:01 | -44.38111 | 169.92153 | 8062 ft | 207 kts | 52° |
| 2026-04-28 22:01 | -44.37425 | 169.93921 | 8066 ft | 207 kts | 53° |
| 2026-04-28 22:01 | -44.36738 | 169.95691 | 8063 ft | 207 kts | 53° |
| 2026-04-28 22:02 | -44.36047 | 169.97468 | 8065 ft | 210 kts | 52° |
| 2026-04-28 22:02 | -44.35352 | 169.99259 | 8067 ft | 209 kts | 52° |
| 2026-04-28 22:02 | -44.34660 | 170.01040 | 8072 ft | 208 kts | 53° |
| 2026-04-28 22:02 | -44.33971 | 170.02812 | 8066 ft | 208 kts | 53° |
| 2026-04-28 22:03 | -44.33281 | 170.04584 | 8066 ft | 207 kts | 53° |
| 2026-04-28 22:03 | -44.32592 | 170.06350 | 8065 ft | 207 kts | 53° |
| 2026-04-28 22:03 | -44.31900 | 170.08122 | 8067 ft | 208 kts | 53° |
| 2026-04-28 22:03 | -44.31208 | 170.09901 | 8069 ft | 209 kts | 53° |
| 2026-04-28 22:04 | -44.30511 | 170.11685 | 8074 ft | 209 kts | 53° |
| 2026-04-28 22:04 | -44.29823 | 170.13446 | 8068 ft | 209 kts | 53° |
| 2026-04-28 22:04 | -44.29128 | 170.15224 | 8066 ft | 208 kts | 53° |
| 2026-04-28 22:04 | -44.28435 | 170.16996 | 8066 ft | 208 kts | 53° |
| 2026-04-28 22:05 | -44.27743 | 170.18766 | 8061 ft | 208 kts | 53° |
| 2026-04-28 22:05 | -44.27051 | 170.20531 | 8064 ft | 207 kts | 53° |
| 2026-04-28 22:05 | -44.26359 | 170.22298 | 8060 ft | 207 kts | 53° |
| 2026-04-28 22:05 | -44.25668 | 170.24060 | 8060 ft | 207 kts | 53° |
| 2026-04-28 22:06 | -44.24975 | 170.25826 | 8058 ft | 207 kts | 53° |
| 2026-04-28 22:06 | -44.24284 | 170.27587 | 8059 ft | 207 kts | 53° |
| 2026-04-28 22:06 | -44.23591 | 170.29349 | 8063 ft | 208 kts | 53° |
| 2026-04-28 22:06 | -44.22892 | 170.31127 | 8063 ft | 210 kts | 53° |
| 2026-04-28 22:07 | -44.22195 | 170.32902 | 8062 ft | 208 kts | 53° |
| 2026-04-28 22:07 | -44.21500 | 170.34669 | 8063 ft | 207 kts | 53° |
| 2026-04-28 22:07 | -44.20808 | 170.36424 | 8064 ft | 206 kts | 53° |
| 2026-04-28 22:07 | -44.20117 | 170.38177 | 8055 ft | 206 kts | 53° |
| 2026-04-28 22:08 | -44.19427 | 170.39929 | 8063 ft | 206 kts | 53° |
| 2026-04-28 22:08 | -44.18738 | 170.41676 | 8057 ft | 205 kts | 53° |
| 2026-04-28 22:08 | -44.18050 | 170.43417 | 8049 ft | 205 kts | 53° |
| 2026-04-28 22:08 | -44.17361 | 170.45160 | 8049 ft | 205 kts | 53° |
| 2026-04-28 22:09 | -44.16674 | 170.46899 | 8054 ft | 205 kts | 53° |
| 2026-04-28 22:09 | -44.15986 | 170.48637 | 8052 ft | 205 kts | 54° |
| 2026-04-28 22:09 | -44.15298 | 170.50375 | 8045 ft | 205 kts | 54° |
| 2026-04-28 22:09 | -44.14611 | 170.52111 | 8045 ft | 205 kts | 54° |
| 2026-04-28 22:10 | -44.13925 | 170.53844 | 8048 ft | 205 kts | 54° |
| 2026-04-28 22:10 | -44.13234 | 170.55586 | 8055 ft | 206 kts | 54° |
| 2026-04-28 22:10 | -44.12539 | 170.57334 | 8050 ft | 206 kts | 54° |
| 2026-04-28 22:10 | -44.11843 | 170.59088 | 8048 ft | 207 kts | 54° |
| 2026-04-28 22:11 | -44.11148 | 170.60843 | 8047 ft | 207 kts | 54° |
| 2026-04-28 22:11 | -44.10451 | 170.62593 | 8044 ft | 207 kts | 54° |
| 2026-04-28 22:11 | -44.09990 | 170.63750 | 8043 ft | 206 kts | 54° |
| 2026-04-28 22:11 | -44.09298 | 170.65491 | 8037 ft | 205 kts | 54° |
| 2026-04-28 22:12 | -44.08608 | 170.67226 | 8043 ft | 206 kts | 54° |
| 2026-04-28 22:12 | -44.08146 | 170.68384 | 8040 ft | 206 kts | 54° |